Ceiba, Puerto Rico
Current Conditions -  °F | °C
As of 4:53 PM on Wednesday 26 Nov 2014 (Local Time) from TJNR Reporting Station
Few Clouds Few Clouds  
Wind Chill: 82°   Ceiling: Unl
Heat Index: 88°   Visibility: 10mi
Dew Point: 74°   Wind: 7mph
Humidity: 76%   Direction: 80°E
Pressure: 30"   Gusts: NA
Location:  18.26°N, 65.65°W
Report Text: TJNR 262053Z AUTO 08006KT 10SM FEW026 28/23 A3000 RMK AO2 SLP160 T02780233 55000 $
Loading
Personal Weather Stations






























Interactive Weather Map New forecast layout! Learn more

10-Day Weather Forecast

Advertisements
Track Severe Weather on mobile